Date,TemperatureHighF,TemperatureAvgF,TemperatureLowF,DewpointHighF,DewpointAvgF,DewpointLowF,HumidityHigh,HumidityAvg,HumidityLow,PressureMaxIn,PressureMinIn,WindSpeedMaxMPH,WindSpeedAvgMPH,GustSpeedMaxMPH,PrecipitationSumIn
2013-1-1,41,38,33,30,28,24,74,67,59,30.04,29.92,8,1,13,0.00
2013-1-2,34,30,26,26,19,15,71,62,49,30.25,30.01,9,1,15,0.00
2013-1-3,30,30,28,20,19,19,68,65,64,30.19,30.18,6,1,7,0.00
2013-1-4,35,33,32,22,21,21,65,61,58,30.16,30.09,12,4,16,0.00
2013-1-5,35,34,32,26,26,25,77,71,69,30.26,30.20,2,0,4,0.00
2013-1-6,48,39,28,32,28,25,90,66,44,30.22,30.05,10,1,19,0.00
2013-1-7,44,37,26,30,27,22,85,66,52,30.45,30.16,12,1,12,0.00
2013-1-8,52,40,26,34,30,23,88,68,43,30.43,30.38,6,0,9,0.00
2013-1-9,46,38,28,41,33,24,90,82,58,30.41,30.25,7,0,13,0.00
2013-1-10,51,45,38,31,30,28,71,55,42,30.61,30.52,7,1,9,0.00
2013-1-11,43,40,36,40,34,29,95,82,68,30.52,30.12,5,0,7,0.17
2013-1-12,58,46,41,50,43,39,95,89,74,30.18,30.11,5,0,6,0.00
2013-1-13,49,45,42,48,44,40,98,96,91,30.15,29.99,4,0,7,0.00
2013-1-14,57,50,38,57,47,35,98,87,63,30.32,29.95,7,0,14,0.15
2013-1-15,39,38,33,37,35,31,95,90,80,30.33,30.18,4,0,6,0.46
2013-1-16,40,36,32,39,34,31,96,95,92,30.18,29.86,4,0,7,0.63
2013-1-17,42,40,36,38,31,27,91,71,57,30.15,29.99,8,1,12,0.00
2013-1-18,36,31,26,29,18,10,78,58,39,30.50,30.06,15,1,20,0.00
2013-1-19,54,39,27,29,25,16,77,58,37,30.43,29.97,14,3,16,0.00
2013-1-20,55,42,31,32,23,13,67,48,23,30.09,29.83,21,3,26,0.00
2013-1-21,38,30,26,26,18,11,70,60,50,30.11,29.84,15,1,16,0.00
2013-1-22,26,18,14,11,0,-4,56,46,35,30.31,29.96,16,4,22,0.00
2013-1-23,22,17,11,8,1,-2,64,50,35,30.38,30.18,11,2,17,0.00
2013-1-24,26,19,14,13,8,2,86,65,38,30.53,30.14,15,1,19,0.03
2013-1-25,21,17,14,15,8,2,90,70,47,30.53,30.10,7,0,9,0.07
2013-1-26,33,24,18,20,18,15,89,78,58,30.45,30.11,11,0,11,0.00
2013-1-27,35,26,17,22,18,13,90,73,51,30.62,30.46,6,0,9,0.00
2013-1-28,38,33,28,37,30,21,96,90,71,30.52,30.07,10,1,13,0.14
2013-1-29,65,49,36,53,44,34,98,84,65,30.15,30.00,6,0,10,0.00
2013-1-30,68,56,45,61,54,43,97,91,76,29.99,29.27,21,2,23,3.18
2013-1-31,56,40,27,55,27,11,98,61,41,29.90,29.17,26,7,32,0.54
2013-2-1,29,24,17,24,11,4,90,58,44,30.38,29.84,18,3,24,0.01
2013-2-2,26,21,15,24,12,5,92,71,49,30.40,30.05,9,1,12,0.03
2013-2-3,31,27,20,27,23,17,92,85,65,30.04,29.84,14,1,17,0.00
2013-2-4,33,28,20,24,18,11,81,65,52,30.10,29.88,10,1,20,0.00
2013-2-5,37,33,30,31,27,23,90,80,73,29.96,29.88,4,0,5,0.00
2013-2-6,41,34,28,30,26,19,90,72,53,30.37,29.95,13,1,18,0.00
2013-2-7,35,31,25,27,22,16,80,69,49,30.47,30.24,6,0,11,0.00
2013-2-8,39,35,31,37,31,22,96,87,70,30.24,29.76,14,1,29,0.10
2013-2-9,39,30,25,22,18,16,71,60,43,30.41,29.92,18,3,23,0.00
2013-2-10,44,32,20,25,17,14,82,56,30,30.50,30.27,7,1,12,0.00
2013-2-11,50,42,33,48,39,25,97,90,57,30.26,29.70,10,2,13,0.32
2013-2-12,52,44,32,34,29,26,80,58,43,30.01,29.82,15,2,20,0.00
2013-2-13,42,34,27,33,28,24,94,80,59,29.98,29.69,4,0,7,0.22
2013-2-14,46,37,30,33,30,28,95,77,53,30.03,29.78,8,0,10,0.00
2013-2-15,55,40,29,37,32,27,94,74,42,30.05,29.92,11,1,16,0.28
2013-2-16,34,32,30,32,28,18,96,84,61,30.03,29.84,7,0,10,0.00
2013-2-17,30,25,21,19,14,7,82,61,47,30.20,29.84,20,3,24,0.00
2013-2-18,39,28,17,15,10,6,66,48,30,30.40,30.19,8,1,17,0.00
2013-2-19,42,36,31,40,28,15,93,73,50,30.19,29.72,17,2,21,0.18
2013-2-20,34,28,23,22,15,10,64,57,51,30.16,29.85,22,5,22,0.00
2013-2-21,36,28,21,19,15,12,67,58,46,30.36,30.12,16,2,20,0.00
2013-2-22,31,29,27,28,22,16,92,75,63,30.41,30.25,7,1,11,0.00
2013-2-23,46,38,30,44,36,28,96,94,91,30.25,29.83,4,0,7,0.00
2013-2-24,48,39,30,39,31,21,96,74,46,30.12,29.81,15,2,20,0.00
2013-2-25,46,35,27,27,23,20,77,63,42,30.24,30.11,6,0,9,0.00
2013-2-26,40,35,28,39,31,23,95,85,68,30.24,29.66,19,1,22,0.42
2013-2-27,54,45,38,42,37,33,96,77,50,29.70,29.53,12,2,20,0.03
2013-2-28,44,40,38,35,30,26,78,67,50,29.73,29.64,14,3,17,0.00
2013-3-1,43,38,32,31,28,24,78,68,56,29.88,29.71,9,1,17,0.00
2013-3-2,36,32,29,25,23,20,76,68,58,29.89,29.82,12,2,18,0.00
2013-3-3,37,32,28,23,21,19,73,64,54,29.91,29.82,13,2,19,0.00
2013-3-4,41,32,25,22,18,15,67,57,44,30.04,29.91,16,3,20,0.00
2013-3-5,48,36,27,29,21,16,72,54,30,30.09,29.86,9,1,12,0.00
2013-3-6,38,34,32,34,32,26,95,91,65,30.01,29.67,19,2,33,0.52
2013-3-7,48,40,34,32,28,26,85,66,45,30.16,30.01,15,2,23,0.00
2013-3-8,48,40,32,30,27,23,80,61,48,30.28,30.14,17,2,29,0.00
2013-3-9,61,44,32,30,25,22,68,49,23,30.36,30.26,7,1,11,0.00
2013-3-10,61,46,30,35,25,12,81,50,20,30.35,30.23,12,1,16,0.00
2013-3-11,56,49,41,48,43,36,92,80,65,30.25,29.92,11,2,15,0.00
2013-3-12,56,49,38,54,43,30,97,81,59,29.96,29.72,16,3,19,1.09
2013-3-13,47,38,30,31,25,19,84,61,35,30.06,29.90,16,4,25,0.00
2013-3-14,42,34,29,22,18,15,66,52,36,30.11,30.03,16,4,22,0.00
2013-3-15,53,42,27,33,24,17,72,50,34,30.09,29.79,15,2,19,0.00
2013-3-16,46,41,35,38,33,32,88,74,61,29.95,29.68,7,0,11,0.01
2013-3-17,40,36,32,32,27,21,91,71,52,30.30,29.94,7,0,13,0.00
2013-3-18,35,34,33,34,27,18,95,76,53,30.34,29.89,9,1,13,0.37
2013-3-19,56,42,34,39,29,11,95,66,21,29.92,29.73,20,3,27,0.00
2013-3-20,49,40,30,25,18,15,63,42,26,30.00,29.78,18,3,23,0.00
2013-3-21,36,31,26,27,16,9,84,54,36,29.90,29.76,15,2,18,0.00
2013-3-22,43,33,26,22,18,12,65,54,39,30.02,29.87,15,3,18,0.00
2013-3-23,50,37,26,29,22,19,76,56,34,30.04,29.93,13,2,18,0.00
2013-3-24,42,34,28,30,24,20,83,67,48,30.01,29.66,3,0,5,0.00
2013-3-25,35,34,32,30,30,30,93,87,80,29.65,29.57,1,0,4,0.17
2013-3-29,52,45,40,30,30,28,67,55,39,30.17,30.15,1,0,4,0.00
2013-3-30,56,38,32,34,28,26,83,71,33,30.17,30.17,6,0,11,0.00
2013-4-1,41,38,36,22,20,18,51,48,46,30.01,29.94,0,0,3,0.00
2013-4-2,45,37,30,22,18,15,68,48,31,30.17,30.01,13,2,19,0.00
2013-4-3,48,36,26,24,17,11,68,48,25,30.39,30.17,13,2,19,0.00
2013-4-4,48,37,23,33,18,14,81,48,26,30.42,30.05,9,1,12,0.00
2013-4-5,64,49,37,35,30,20,90,54,25,30.08,29.80,12,2,19,0.00
2013-4-6,56,44,33,24,20,14,63,39,23,30.32,30.03,8,1,11,0.00
2013-4-7,67,52,37,41,34,24,79,52,34,30.27,29.97,17,3,23,0.00
2013-4-8,78,65,51,51,46,40,73,51,31,30.06,29.93,10,1,14,0.00
2013-4-9,82,71,56,57,52,48,75,53,36,30.05,29.89,12,2,15,0.00
2013-4-10,88,75,60,61,55,51,74,51,32,29.94,29.74,16,3,25,0.00
2013-4-11,83,67,54,61,56,50,90,71,41,29.87,29.74,10,1,17,0.00
2013-4-12,65,53,49,59,51,48,96,93,81,29.82,29.59,11,1,15,0.42
2013-4-13,66,53,41,47,41,35,94,66,37,29.94,29.77,12,2,14,0.00
2013-4-14,65,53,39,42,38,34,85,58,32,30.13,29.95,10,1,14,0.00
2013-4-15,60,55,52,48,46,40,85,70,58,30.28,30.12,9,1,12,0.00
2013-4-16,73,61,52,58,53,47,87,76,59,30.30,30.09,14,2,19,0.00
2013-4-17,70,64,59,60,57,54,93,78,61,30.22,30.10,7,0,13,0.00
2013-4-18,72,61,56,64,56,51,97,84,67,30.22,30.00,12,1,16,0.24
2013-4-19,75,64,51,65,59,49,95,86,69,30.00,29.58,15,2,19,1.73
2013-4-20,57,50,43,49,34,28,94,58,35,30.34,29.75,17,3,22,0.06
2013-4-21,54,44,36,33,26,21,70,50,29,30.59,30.34,7,1,12,0.00
2013-4-22,56,46,35,36,34,32,90,65,43,30.58,30.41,10,1,14,0.00
2013-4-23,60,50,43,44,40,34,85,69,48,30.42,30.12,6,0,8,0.00
2013-4-24,75,60,44,58,50,41,95,73,45,30.12,29.76,13,2,22,0.00
2013-4-25,62,52,42,48,35,28,74,54,30,30.30,29.97,15,2,21,0.00
2013-4-26,63,52,40,38,35,29,82,56,31,30.45,30.29,10,1,14,0.00
2013-4-27,69,54,38,42,36,34,87,54,29,30.42,30.28,7,0,9,0.00
2013-4-28,66,55,43,43,39,31,88,57,36,30.28,30.13,9,1,17,0.00
2013-4-29,57,54,50,56,51,40,96,91,56,30.15,30.05,7,0,9,0.15
2013-4-30,60,55,51,56,53,47,97,91,80,30.29,30.09,5,0,8,0.03
2013-5-1,69,56,42,47,40,32,89,59,26,30.42,30.29,6,0,9,0.00
2013-5-2,69,55,42,48,44,40,94,69,36,30.43,30.31,6,0,10,0.00
2013-5-3,66,54,44,48,43,38,95,68,38,30.38,30.30,9,1,13,0.00
2013-5-4,67,55,42,45,42,37,92,65,34,30.34,30.17,10,1,12,0.00
2013-5-5,62,51,42,45,41,37,89,70,48,30.24,30.15,6,0,11,0.00
2013-5-6,60,53,42,56,49,40,95,87,82,30.19,30.07,7,0,12,0.00
2013-5-7,62,58,56,60,57,55,97,96,91,30.08,29.95,7,0,13,0.73
2013-5-8,70,60,55,58,55,50,98,84,52,29.99,29.91,9,1,16,0.01
2013-5-9,72,61,52,60,55,51,96,83,60,29.98,29.90,9,1,11,0.00
2013-5-10,82,66,51,62,57,50,98,75,42,30.00,29.85,9,1,12,0.77
2013-5-11,75,64,60,65,62,59,97,92,66,29.90,29.69,8,1,18,0.33
2013-5-12,62,56,48,59,40,28,96,60,31,30.01,29.73,18,3,22,0.00
2013-5-13,58,48,38,34,30,25,83,53,29,30.16,30.01,13,2,19,0.00
2013-5-14,60,48,32,44,34,29,93,60,36,30.21,30.05,11,1,14,0.00
2013-5-15,80,63,52,64,54,42,92,74,54,30.06,29.68,9,1,16,0.04
2013-5-16,79,71,63,64,60,56,87,70,57,29.89,29.73,12,2,16,0.00
2013-5-17,82,68,54,57,50,40,96,59,30,30.13,29.90,6,0,9,0.00
2013-5-18,66,61,57,57,54,46,95,78,55,30.22,30.13,6,0,11,0.05
2013-5-19,66,62,57,64,60,56,98,95,89,30.20,30.09,4,0,7,0.01
2013-5-20,78,69,64,68,65,62,97,87,68,30.11,29.97,6,0,9,0.00
2013-5-21,83,72,64,73,67,63,98,85,67,29.98,29.85,7,1,11,0.00
2013-5-22,88,74,65,73,67,63,98,83,50,29.92,29.80,8,1,12,0.11
2013-5-23,79,68,62,68,64,61,97,88,67,29.87,29.73,16,1,16,0.73
2013-5-24,62,55,47,62,49,35,97,81,62,30.13,29.71,13,2,25,0.07
2013-5-25,64,53,42,44,37,33,77,56,37,30.14,30.06,16,3,22,0.01
2013-5-26,70,57,46,45,39,35,78,53,30,30.20,30.11,11,2,16,0.00
2013-5-27,70,58,43,50,43,39,89,61,36,30.27,30.17,7,1,9,0.00
2013-5-28,76,64,55,65,59,49,96,82,67,30.20,30.06,4,0,6,0.06
2013-5-29,87,75,62,68,64,61,98,72,47,30.10,30.04,12,2,16,0.00
2013-5-30,91,78,65,70,65,62,95,69,41,30.15,30.08,9,1,9,0.00
2013-5-31,89,77,64,68,64,61,96,69,41,30.12,30.00,11,1,14,0.00
2013-6-1,89,78,65,70,66,62,91,68,48,30.01,29.89,9,1,12,0.00
2013-6-2,81,74,67,71,66,63,96,77,66,29.89,29.81,10,2,13,0.20
2013-6-3,79,71,65,69,64,56,97,82,59,29.92,29.80,6,0,14,0.20
2013-6-4,75,64,54,56,49,44,84,60,37,30.12,29.92,6,0,12,0.00
2013-6-5,76,65,51,56,52,49,94,67,42,30.18,30.04,5,0,9,0.00
2013-6-6,70,64,59,63,58,53,97,82,70,30.07,29.87,8,0,10,0.73
2013-6-7,69,66,62,68,65,61,98,98,97,29.87,29.58,6,0,14,1.00
2013-6-8,78,68,63,66,62,60,98,82,57,30.08,29.67,8,1,11,0.00
2013-6-9,80,70,59,68,63,57,95,80,59,30.19,30.08,6,0,9,0.00
2013-6-10,78,70,66,75,68,64,98,95,82,30.10,29.78,8,1,19,1.89
2013-6-11,80,71,64,68,66,64,99,83,63,29.82,29.75,14,2,17,0.00
2013-6-12,85,74,64,71,66,62,94,78,57,29.84,29.76,9,1,12,0.00
2013-6-13,83,72,67,70,66,57,95,83,59,29.80,29.43,20,2,22,0.20
2013-6-14,78,66,57,58,56,51,93,71,43,29.96,29.56,10,1,19,0.02
2013-6-15,80,68,56,62,56,51,95,69,42,30.06,29.96,9,1,15,0.00
2013-6-16,80,70,60,68,62,56,91,76,58,30.02,29.86,12,1,18,0.00
2013-6-17,86,75,67,71,65,62,87,72,53,29.93,29.86,9,1,12,0.00
2013-6-18,73,69,64,71,67,63,97,94,87,29.90,29.78,3,0,6,0.28
2013-6-19,75,66,60,64,61,57,98,85,58,30.14,29.87,2,0,4,0.07
2013-6-20,78,67,57,64,60,56,98,80,55,30.26,30.15,3,0,6,0.11
2013-6-21,81,68,55,62,55,48,93,66,33,30.29,30.23,2,0,6,0.02
2013-6-22,85,72,58,70,63,57,97,76,51,30.24,30.11,4,1,8,0.00
2013-6-23,84,72,64,73,68,62,97,85,66,30.17,30.05,2,0,4,0.12
2013-6-24,90,76,68,73,68,63,97,78,48,30.10,30.00,12,1,12,0.00
2013-6-25,90,77,66,73,68,64,97,78,52,30.01,29.86,5,1,10,0.09
2013-6-26,88,73,64,74,69,63,97,87,61,29.90,29.80,5,1,7,0.25
2013-6-27,83,74,67,76,70,66,98,89,74,29.81,29.58,5,1,9,0.24
2013-6-28,86,75,68,73,69,65,95,82,63,29.60,29.46,5,1,11,0.09
2013-6-29,85,75,64,70,64,59,96,72,44,29.67,29.50,5,1,9,0.00
2013-6-30,84,75,68,75,71,66,97,87,70,29.83,29.68,4,0,8,0.00
2013-7-1,81,75,70,74,71,69,97,90,76,29.97,29.83,4,0,7,0.14
2013-7-2,82,75,72,74,72,70,97,91,74,30.15,29.97,3,1,8,0.11
2013-7-3,84,74,70,76,72,69,98,92,73,30.22,30.15,3,0,5,0.26
2013-7-4,88,78,72,76,72,70,97,83,63,30.24,30.15,5,1,10,0.00
2013-7-5,87,79,71,74,72,70,96,80,60,30.20,30.10,6,1,11,0.00
2013-7-6,90,80,71,76,72,69,96,76,55,30.17,30.04,3,1,7,0.00
2013-7-7,89,77,68,75,70,67,96,81,60,30.09,29.97,6,1,12,0.12
2013-7-8,84,73,68,70,68,66,97,85,57,30.08,30.02,4,1,11,0.02
2013-7-9,81,75,69,74,70,68,94,85,75,30.09,29.98,3,0,6,0.01
2013-7-10,86,78,73,76,73,69,96,85,63,30.00,29.84,6,1,11,0.02
2013-7-11,84,76,70,71,69,66,97,82,58,29.91,29.82,5,0,6,0.08
2013-7-12,72,69,66,68,66,64,97,93,81,30.01,29.89,1,0,5,0.52
2013-7-13,83,73,68,74,70,67,98,89,71,30.27,30.00,1,0,5,0.09
2013-7-14,89,80,71,76,73,70,98,80,57,30.32,30.25,3,1,5,0.01
2013-7-15,93,80,69,76,72,68,98,79,53,30.29,30.16,2,0,6,0.00
2013-7-16,92,82,74,75,72,68,93,73,48,30.22,30.15,2,0,6,0.00
2013-7-17,93,82,72,74,71,66,94,72,44,30.20,30.07,1,0,6,0.00
2013-7-18,94,83,72,79,75,71,94,78,56,30.10,29.98,3,0,5,0.00
2013-7-19,94,83,74,79,74,67,96,77,56,29.99,29.84,5,1,8,0.00
2013-7-20,91,79,70,76,71,68,95,77,57,29.87,29.77,6,2,10,0.08
2013-7-21,87,76,68,74,71,67,98,84,62,29.92,29.85,1,0,3,0.00
2013-7-22,86,77,70,76,72,69,98,86,64,29.92,29.73,6,0,11,0.41
2013-7-23,84,75,69,74,70,67,98,85,60,29.74,29.62,5,1,10,0.04
2013-7-24,82,73,67,69,65,57,92,76,57,29.91,29.66,2,0,7,0.00
2013-7-25,76,66,57,62,57,52,92,74,56,30.02,29.91,1,0,6,0.00
2013-7-26,82,69,60,63,60,57,97,75,47,30.08,30.01,3,0,6,0.00
2013-7-27,82,69,61,70,65,60,98,89,64,30.04,29.92,4,0,10,0.63
2013-7-28,82,72,67,71,68,64,98,88,61,29.97,29.88,4,0,9,0.27
2013-7-29,79,72,62,61,58,55,88,62,45,30.15,30.07,5,1,9,0.04
2013-7-30,80,68,57,62,58,55,94,73,47,30.22,30.13,3,0,7,0.00
2013-7-31,78,70,61,68,64,60,98,83,65,30.15,30.00,2,0,6,0.00
2013-8-1,82,72,66,72,68,65,98,88,64,30.00,29.80,2,0,5,0.08
2013-8-2,83,72,62,68,64,60,98,78,51,29.94,29.83,6,1,10,0.01
2013-8-3,71,67,63,66,64,61,96,90,81,29.95,29.90,3,0,5,0.16
2013-8-4,79,68,59,63,58,52,97,74,46,30.01,29.89,5,1,11,0.00
2013-8-5,78,67,55,61,56,53,92,70,43,30.09,30.01,3,0,5,0.00
2013-8-7,76,73,68,73,71,67,96,93,88,30.03,29.98,7,0,8,1.10
2013-8-8,81,73,67,75,71,65,99,93,77,30.05,29.95,8,1,11,1.09
2013-8-9,84,77,73,77,73,70,98,90,74,29.95,29.35,5,1,11,0.49
2013-8-10,82,74,68,71,67,62,97,80,52,30.08,29.93,2,0,8,0.01
2013-8-11,83,73,65,72,67,64,97,83,63,30.11,30.00,2,0,7,0.00
2013-8-12,85,75,67,72,68,65,96,82,54,30.03,29.91,1,0,7,0.00
2013-8-13,84,74,70,72,69,62,97,84,59,29.91,29.73,4,1,13,0.05
2013-8-14,74,64,56,61,53,47,89,67,50,30.09,29.82,5,1,18,0.00
2013-8-15,77,63,53,56,52,48,91,70,40,30.20,30.09,2,0,8,0.00
2013-8-16,77,64,53,60,55,51,98,75,46,30.21,30.14,1,0,4,0.00
2013-8-17,79,67,54,61,57,53,97,75,46,30.28,30.21,1,0,10,0.00
2013-8-18,72,66,63,63,61,59,95,84,68,30.25,30.17,1,0,7,0.03
2013-8-19,74,67,59,67,63,58,97,88,75,30.19,30.07,2,0,8,0.00
2013-8-20,85,72,60,69,64,59,99,79,49,30.17,30.09,3,0,9,0.00
2013-8-21,87,74,63,74,68,62,98,84,59,30.20,30.06,3,0,11,0.00
2013-8-22,84,76,68,71,69,64,96,80,60,30.08,29.92,5,1,8,0.00
2013-8-23,73,68,60,68,64,58,96,86,74,30.12,29.93,0,0,11,0.04
2013-8-24,80,67,58,64,58,52,97,75,40,30.35,30.12,1,0,3,0.00
2013-8-25,80,67,55,64,58,54,98,75,46,30.42,30.27,2,0,6,0.00
2013-8-26,78,64,57,66,59,55,94,83,65,30.29,29.99,2,0,3,0.00
2013-8-27,88,77,69,72,69,64,92,76,56,29.99,29.86,3,0,9,0.00
2013-8-28,75,72,69,72,70,68,96,92,87,29.91,29.82,3,0,10,0.05
2013-8-29,83,74,69,71,69,67,97,86,63,30.02,29.84,1,0,6,0.02
2013-8-30,84,75,68,72,68,66,96,83,60,30.03,29.88,4,1,9,0.00
2013-8-31,88,76,68,74,70,66,95,82,59,29.89,29.78,4,0,6,0.00
2013-9-1,89,77,67,74,71,66,97,82,57,29.84,29.75,2,0,8,0.00
2013-9-2,88,78,69,73,70,68,96,80,56,29.79,29.71,4,1,8,0.00
2013-9-3,82,73,64,71,63,55,95,72,46,29.95,29.72,5,1,11,0.00
2013-9-4,81,67,54,57,54,49,95,67,36,30.08,29.95,4,0,11,0.00
2013-9-5,80,67,55,64,56,48,96,72,43,30.14,30.01,5,1,15,0.00
2013-9-6,74,61,51,52,49,46,86,66,40,30.26,30.14,3,0,10,0.00
2013-9-7,78,62,49,61,54,47,94,77,48,30.16,29.94,3,0,9,0.00
2013-9-8,84,71,62,68,63,57,96,79,55,30.07,29.89,2,0,9,0.02
2013-9-9,77,66,56,66,56,48,87,71,59,30.21,30.07,2,0,5,0.00
2013-9-10,90,78,69,74,70,66,94,80,56,30.18,30.07,4,1,7,0.00
2013-9-11,92,79,70,78,72,69,97,79,55,30.14,30.00,5,1,12,0.00
2013-9-12,89,74,68,75,70,66,97,87,59,30.00,29.73,3,0,10,0.10
2013-9-13,76,67,59,67,57,50,97,74,42,29.93,29.69,4,1,11,0.01
2013-9-14,68,57,48,50,47,45,93,71,46,30.17,29.93,3,0,8,0.00
2013-9-15,74,58,43,56,50,42,98,76,47,30.24,30.09,3,0,9,0.00
2013-9-16,72,62,56,59,55,52,95,82,56,30.25,30.04,2,0,11,0.06
2013-9-17,66,55,45,52,44,39,91,69,37,30.43,30.25,1,0,8,0.00
2013-9-18,70,55,42,50,46,41,98,75,42,30.36,30.20,3,0,9,0.00
2013-9-19,76,59,45,60,52,44,98,80,53,30.22,30.09,3,0,6,0.00
2013-9-20,80,63,51,62,57,50,98,82,53,30.10,29.96,3,0,9,0.00
2013-9-21,72,63,59,64,60,57,97,89,67,29.98,29.69,3,0,15,0.87
2013-9-22,62,57,53,60,54,48,98,92,62,29.95,29.72,1,0,10,0.00
2013-9-23,66,55,46,48,45,42,92,73,49,30.09,29.95,4,0,10,0.00
2013-9-24,72,55,42,51,46,40,96,75,39,30.12,29.95,2,0,11,0.00
2013-9-25,75,58,44,52,47,42,95,71,35,30.00,29.89,1,0,6,0.29
2013-9-26,73,55,50,55,50,48,93,84,44,30.09,29.94,10,1,10,0.00
2013-9-27,69,60,52,59,56,51,95,86,66,30.26,30.09,1,0,7,0.00
2013-9-28,65,56,52,56,53,51,96,91,68,30.33,30.26,0,0,5,0.00
2013-9-30,74,65,54,57,54,52,94,70,47,30.10,29.99,3,0,8,0.00
2013-10-1,79,64,52,62,56,50,97,79,47,30.07,29.97,4,0,11,0.00
2013-10-2,83,68,54,64,59,53,98,77,47,30.08,30.00,5,1,13,0.00
2013-10-3,81,68,57,66,62,56,97,81,55,30.13,30.04,2,0,8,0.00
2013-10-4,85,70,58,68,63,57,98,81,50,30.09,30.01,2,0,8,0.00
2013-10-5,86,74,62,68,65,61,97,77,50,30.09,30.00,3,0,10,0.00
2013-10-6,86,73,63,71,66,62,98,80,48,30.03,29.91,5,1,17,0.00
2013-10-7,71,63,52,69,61,46,97,91,80,30.05,29.76,11,1,25,1.22
2013-10-8,66,54,44,49,46,43,97,77,49,30.30,30.05,3,0,14,0.00
2013-10-9,59,53,49,50,48,45,94,81,71,30.34,30.23,1,0,12,0.05
2013-10-10,56,54,51,56,52,49,98,96,88,30.23,30.01,3,0,14,1.60
2013-10-11,60,58,55,60,57,55,98,98,97,30.02,29.95,2,0,12,1.59
2013-10-12,66,61,57,60,58,55,98,89,73,30.18,30.00,1,0,7,0.14
2013-10-13,62,57,55,58,55,52,97,93,79,30.34,30.18,0,0,5,0.06
2013-10-14,68,58,52,55,52,50,95,83,57,30.35,30.23,1,0,8,0.00
2013-10-15,71,57,47,55,49,45,98,79,42,30.25,30.10,1,0,7,0.00
2013-10-16,67,61,55,61,57,51,96,88,79,30.10,29.91,1,0,7,0.00
2013-10-17,74,63,58,64,60,54,98,91,68,29.91,29.71,7,0,10,0.08
2013-10-18,64,56,45,53,44,42,93,68,48,30.02,29.82,8,2,23,0.00
2013-10-19,64,52,42,56,48,41,96,86,58,30.01,29.79,3,0,14,0.14
2013-10-20,61,50,39,47,40,36,93,71,43,30.11,29.86,6,1,17,0.02
2013-10-21,66,51,37,46,40,36,97,73,37,30.16,29.97,5,1,14,0.00
2013-10-22,60,50,42,50,44,37,97,82,55,29.98,29.83,4,0,14,0.00
2013-10-23,54,46,39,39,37,34,87,71,49,29.89,29.67,5,0,12,0.00
2013-10-24,50,42,36,35,32,27,87,68,46,30.14,29.90,9,2,20,0.00
2013-10-25,53,41,31,36,31,29,90,69,45,30.33,30.13,7,1,20,0.00
2013-10-26,54,42,28,32,29,26,92,63,39,30.32,29.95,9,2,20,0.00
2013-10-27,59,46,36,39,34,32,88,65,42,30.16,29.96,6,1,16,0.00
2013-10-28,62,45,32,42,37,30,95,75,42,30.30,30.16,2,0,9,0.00
2013-10-29,62,47,36,45,40,34,93,77,46,30.40,30.30,2,0,6,0.00
2013-10-30,67,54,43,55,50,41,97,88,64,30.34,30.15,2,0,8,0.05
2013-10-31,66,59,53,59,56,52,98,90,77,30.20,29.78,2,1,13,0.03
2013-11-1,72,64,54,63,57,52,94,80,49,29.77,29.56,10,2,23,0.53
2013-11-2,66,55,44,52,45,39,96,72,45,29.87,29.65,7,1,18,0.00
2013-11-3,54,46,36,43,34,24,89,65,34,30.47,29.87,5,1,16,0.00
2013-11-4,44,36,28,28,24,20,81,62,40,30.65,30.47,1,0,10,0.00
2013-11-5,56,45,33,46,38,27,85,76,62,30.63,30.48,1,0,9,0.00
2013-11-6,66,56,44,52,49,43,96,79,58,30.48,30.06,5,1,13,0.00
2013-11-7,57,52,40,54,46,26,93,80,52,30.07,29.87,5,2,16,0.08
2013-11-8,50,40,30,32,27,25,86,62,42,30.32,30.07,7,2,19,0.00
2013-11-9,52,40,27,31,28,24,91,64,40,30.36,30.04,6,1,20,0.00
2013-11-10,60,46,34,36,30,28,82,55,36,30.22,29.97,10,3,24,0.00
2013-11-11,54,44,32,34,30,28,87,59,39,30.30,30.02,5,1,13,0.01
2013-11-12,48,37,27,38,24,15,83,59,43,30.40,29.99,5,1,21,0.00
2013-11-13,42,32,27,23,20,17,75,61,44,30.48,30.39,5,1,16,0.00
2013-11-14,56,38,25,24,18,11,78,49,19,30.38,30.24,7,1,15,0.00
2013-11-15,59,42,27,36,28,22,84,61,27,30.29,30.20,2,0,7,0.00
2013-11-16,52,46,41,48,44,37,97,92,72,30.34,30.25,1,0,9,0.09
2013-11-17,60,55,48,57,53,48,98,94,85,30.24,29.72,5,1,12,0.02
2013-11-18,65,58,47,59,37,25,94,51,25,29.93,29.68,11,5,31,0.10
2013-11-19,48,41,32,29,26,23,77,57,44,30.38,29.92,6,2,22,0.00
2013-11-20,45,33,26,24,20,10,84,62,25,30.59,30.37,1,0,8,0.00
2013-11-21,47,38,26,38,31,22,85,76,66,30.60,30.40,1,0,5,0.00
2013-11-22,59,51,44,51,45,38,91,81,70,30.40,30.01,6,0,10,0.00
2013-11-23,53,41,28,47,28,11,81,60,42,30.19,30.04,8,3,22,0.00
2013-11-24,31,25,20,14,10,6,67,52,42,30.52,30.19,10,4,27,0.00
2013-11-25,35,27,19,13,10,7,68,51,31,30.58,30.36,5,1,15,0.00
2013-11-26,46,34,31,45,26,12,97,75,44,30.36,29.60,2,0,8,1.41
2013-11-27,39,35,28,37,31,17,96,85,63,30.01,29.52,8,3,25,0.41
2013-11-28,36,30,25,24,17,14,75,60,41,30.49,30.02,7,3,20,0.00
2013-11-29,41,31,24,24,21,18,83,67,46,30.74,30.48,3,0,13,0.00
2013-11-30,36,29,21,24,19,16,83,66,49,30.74,30.42,1,0,6,0.00
2013-12-1,45,36,25,32,27,21,86,70,53,30.40,30.03,3,0,7,0.00
2013-12-2,47,41,38,36,34,32,84,77,63,30.03,29.89,0,0,2,0.00
2013-12-3,56,44,36,40,36,33,88,75,51,30.00,29.89,3,0,9,0.00
2013-12-4,53,45,34,48,41,32,94,85,73,30.10,30.00,1,0,5,0.00
2013-12-5,66,57,50,60,54,47,97,89,75,30.09,29.92,5,1,12,0.00
2013-12-6,63,48,36,61,47,34,96,95,91,30.17,29.88,4,1,19,0.76
2013-12-7,41,35,29,35,30,22,96,82,66,30.55,30.13,3,1,15,0.09
2013-12-8,29,27,24,28,22,18,95,84,70,30.61,30.31,1,0,8,0.50
2013-12-9,35,32,29,33,31,28,96,95,93,30.32,30.05,2,0,8,0.12
2013-12-10,36,30,22,33,27,19,97,91,76,30.22,30.00,5,0,18,0.12
2013-12-11,36,24,16,21,18,13,91,77,46,30.42,30.22,4,1,13,0.00
2013-12-12,29,24,20,22,13,6,89,62,43,30.44,30.27,6,1,15,0.00
2013-12-13,38,29,18,23,16,8,76,58,39,30.34,30.24,8,2,16,0.00
2013-12-14,37,33,30,33,27,22,96,81,58,30.35,29.72,3,0,9,0.38
2013-12-15,43,34,30,35,28,21,96,81,67,29.92,29.64,7,2,21,0.00
2013-12-16,34,31,27,26,22,17,76,68,61,30.19,29.93,5,1,14,0.00
2013-12-17,35,31,28,31,27,24,92,84,75,30.16,29.93,2,0,8,0.00
2013-12-18,37,30,25,27,23,20,90,74,55,30.21,29.98,8,1,18,0.00
2013-12-19,54,35,23,32,26,19,89,70,41,30.20,30.07,4,0,9,0.00
2013-12-20,54,45,35,40,33,29,79,64,45,30.10,29.98,5,1,10,0.00
2013-12-21,69,57,45,58,49,38,82,74,61,30.00,29.87,7,2,20,0.00
2013-12-22,70,63,60,63,59,57,95,88,78,29.97,29.79,11,3,27,0.05
2013-12-23,61,52,36,59,48,27,97,87,70,30.21,29.87,5,1,20,0.39
2013-12-24,37,31,21,28,21,9,84,67,48,30.45,30.18,8,2,23,0.00
2013-12-25,30,24,18,18,13,10,76,63,47,30.57,30.39,3,0,10,0.00
2013-12-26,43,30,22,26,21,18,87,71,46,30.38,30.22,7,1,18,0.00
2013-12-27,48,34,24,24,20,17,81,59,30,30.41,30.30,6,1,16,0.00
2013-12-28,56,40,27,30,25,21,80,58,30,30.32,30.10,8,1,19,0.00
2013-12-29,45,42,37,44,37,28,96,86,59,30.10,29.52,4,0,13,0.70
2013-12-30,44,37,30,39,30,20,94,75,63,30.17,29.79,4,1,16,0.00
2013-12-31,39,31,26,28,20,16,72,63,48,30.32,30.09,12,2,32,0.00
2014-1-1,44,32,23,29,23,17,92,71,47,30.41,30.13,7,1,16,0.00
2014-1-2,34,31,23,31,28,21,94,91,86,30.13,29.63,1,0,6,0.30